createdAt,value
2022-09-20T00:04:04.693Z,48.12
2022-09-20T00:09:03.943Z,48.16
2022-09-20T00:14:02.750Z,48.36
2022-09-20T00:19:04.050Z,48.52
2022-09-20T00:24:03.671Z,48.55
2022-09-20T00:29:09.301Z,48.74
2022-09-20T00:34:24.604Z,49.01
2022-09-20T00:39:43.428Z,49.03
2022-09-20T00:44:55.483Z,49.18
2022-09-20T00:50:20.057Z,49.37
2022-09-20T00:55:20.092Z,49.47
2022-09-20T01:00:17.693Z,49.68
2022-09-20T01:05:17.625Z,49.81
2022-09-20T01:10:43.496Z,49.99
2022-09-20T01:15:41.958Z,49.88
2022-09-20T01:20:41.961Z,50.00
2022-09-20T01:26:16.706Z,50.11
2022-09-20T01:31:20.265Z,50.42
2022-09-20T01:36:24.495Z,50.35
2022-09-20T01:41:27.707Z,50.61
2022-09-20T01:46:32.888Z,50.66
2022-09-20T01:51:58.649Z,50.77
2022-09-20T01:57:01.957Z,50.80
2022-09-20T02:02:33.644Z,50.91
2022-09-20T02:08:06.744Z,51.23
2022-09-20T02:13:08.300Z,51.50
2022-09-20T02:18:18.527Z,51.66
2022-09-20T02:23:37.445Z,51.55
2022-09-20T02:28:54.682Z,51.28
2022-09-20T02:34:22.991Z,51.46
2022-09-20T02:39:24.201Z,51.50
2022-09-20T02:44:50.649Z,51.27
2022-09-20T02:50:22.079Z,51.24
2022-09-20T02:55:32.291Z,51.36
2022-09-20T03:00:37.321Z,51.30
2022-09-20T03:05:50.915Z,51.29
2022-09-20T03:10:57.404Z,51.21
2022-09-20T03:16:10.060Z,51.40
2022-09-20T03:21:22.463Z,51.32
2022-09-20T03:26:43.931Z,51.41
2022-09-20T03:31:56.681Z,51.24
2022-09-20T03:37:12.675Z,51.01
2022-09-20T03:42:25.146Z,50.98
2022-09-20T03:47:40.166Z,51.02
2022-09-20T03:53:18.465Z,50.96
2022-09-20T03:58:45.018Z,51.22
2022-09-20T04:03:54.758Z,50.95
2022-09-20T04:09:26.628Z,51.00
2022-09-20T04:14:35.531Z,50.97
2022-09-20T04:19:40.728Z,50.91
2022-09-20T04:24:47.488Z,50.60
2022-09-20T04:29:53.072Z,50.75
2022-09-20T04:35:33.055Z,50.35
2022-09-20T04:40:50.457Z,50.27
2022-09-20T04:53:02.626Z,49.66
2022-09-20T05:04:42.004Z,49.19
2022-09-20T05:16:12.214Z,48.88
2022-09-20T05:22:02.548Z,48.72
2022-09-20T05:27:25.273Z,48.57
2022-09-20T05:33:08.490Z,48.34
2022-09-20T05:43:33.889Z,47.83
2022-09-20T05:48:44.623Z,46.71
2022-09-20T05:54:14.088Z,46.05
2022-09-20T05:59:29.629Z,45.45
2022-09-20T06:04:58.200Z,45.59
2022-09-20T06:10:47.728Z,45.16
2022-09-20T06:15:58.753Z,45.09
2022-09-20T06:21:05.893Z,44.64
2022-09-20T06:26:10.503Z,43.88
2022-09-20T06:31:10.987Z,43.56
2022-09-20T06:36:34.057Z,42.15
2022-09-20T06:41:37.184Z,39.67
2022-09-20T06:46:36.054Z,36.82
2022-09-20T06:51:38.644Z,36.09
2022-09-20T06:56:39.297Z,34.91
2022-09-20T07:01:38.912Z,31.75
2022-09-20T07:07:13.366Z,30.72
2022-09-20T07:12:24.228Z,30.14
2022-09-20T10:44:56.150Z,17.42
2022-09-20T10:50:35.831Z,18.38
2022-09-20T10:55:46.882Z,19.10
2022-09-20T11:00:54.226Z,18.36
2022-09-20T11:06:09.526Z,19.75
2022-09-20T11:11:14.222Z,20.68
2022-09-20T11:16:20.625Z,21.38
2022-09-20T11:21:23.377Z,21.71
2022-09-20T11:26:28.147Z,21.59
2022-09-20T11:31:43.614Z,21.78
2022-09-20T11:36:54.193Z,21.88
2022-09-20T11:41:55.226Z,21.56
2022-09-20T11:47:49.906Z,21.65
2022-09-20T11:53:04.540Z,22.72
2022-09-20T11:58:12.695Z,22.45
2022-09-20T12:04:00.125Z,21.90
2022-09-20T12:10:09.127Z,23.16
2022-09-20T12:15:25.538Z,23.75
2022-09-20T12:21:31.602Z,24.18
2022-09-20T12:27:04.160Z,24.45
2022-09-20T12:32:53.695Z,25.50
2022-09-20T12:37:55.774Z,24.59
2022-09-20T12:42:57.395Z,25.04
2022-09-20T12:47:59.278Z,25.27
2022-09-20T12:53:22.483Z,25.62
2022-09-20T12:58:33.053Z,25.52
2022-09-20T13:03:35.634Z,25.94
2022-09-20T13:09:15.217Z,25.90
2022-09-20T13:14:18.137Z,26.32
2022-09-20T13:19:48.509Z,26.05
2022-09-20T13:24:49.835Z,26.84
2022-09-20T13:29:58.204Z,27.14
2022-09-20T13:35:44.139Z,27.25
2022-09-20T13:40:47.988Z,27.35
2022-09-20T13:45:49.028Z,27.81
2022-09-20T13:50:53.395Z,27.55
2022-09-20T13:56:18.395Z,27.53
2022-09-20T14:01:48.285Z,28.05
2022-09-20T14:06:49.155Z,28.43
2022-09-20T14:11:50.947Z,28.71
2022-09-20T14:16:54.393Z,28.30
2022-09-20T14:21:54.720Z,28.42
2022-09-20T14:27:08.802Z,28.63
2022-09-20T14:32:38.658Z,29.00
2022-09-20T14:37:56.473Z,28.68
2022-09-20T14:43:05.674Z,28.92
2022-09-20T14:48:30.302Z,29.00
2022-09-20T14:53:30.287Z,28.54
2022-09-20T14:58:33.856Z,29.45
2022-09-20T15:03:34.950Z,29.77
2022-09-20T15:08:50.705Z,30.11
2022-09-20T15:14:37.938Z,30.47
2022-09-20T15:19:39.617Z,30.96
2022-09-20T15:24:44.729Z,30.84
2022-09-20T15:29:46.090Z,30.58
2022-09-20T15:35:25.474Z,30.78
2022-09-20T15:40:25.491Z,30.78
2022-09-20T15:46:07.822Z,31.95
2022-09-20T15:51:08.202Z,32.43
2022-09-20T15:56:14.775Z,32.51
2022-09-20T16:07:07.110Z,33.44
2022-09-20T16:12:04.650Z,33.88
2022-09-20T16:17:02.861Z,34.20
2022-09-20T16:22:04.118Z,34.29
2022-09-20T16:27:06.110Z,34.32
2022-09-20T16:32:13.513Z,34.64
2022-09-20T16:37:28.026Z,35.20
2022-09-20T16:43:34.753Z,35.38
2022-09-20T16:49:27.132Z,35.45
2022-09-20T16:55:45.727Z,35.69
2022-09-20T17:00:47.701Z,36.19
2022-09-20T17:06:04.273Z,36.25
2022-09-20T17:11:08.043Z,36.35
2022-09-20T17:16:51.956Z,36.20
2022-09-20T17:22:17.631Z,36.24
2022-09-20T17:27:32.594Z,36.63
2022-09-20T17:32:40.533Z,36.57
2022-09-20T17:38:09.510Z,36.63
2022-09-20T17:43:07.639Z,37.28
2022-09-20T17:48:11.568Z,37.10
2022-09-20T17:53:10.785Z,37.29
2022-09-20T17:59:25.254Z,37.58
2022-09-20T18:04:24.716Z,37.59
2022-09-20T18:09:26.822Z,38.08
2022-09-20T18:14:30.913Z,37.90
2022-09-20T18:19:33.559Z,37.82
2022-09-20T18:24:31.238Z,37.60
2022-09-20T18:29:32.867Z,37.46
2022-09-20T18:34:36.517Z,37.74
2022-09-20T18:39:36.126Z,37.89
2022-09-20T18:44:45.506Z,37.56
2022-09-20T18:49:45.700Z,38.05
2022-09-20T18:54:43.925Z,38.28
2022-09-20T18:59:49.714Z,38.15
2022-09-20T19:05:11.366Z,38.28
2022-09-20T19:10:38.127Z,38.37
2022-09-20T19:15:52.840Z,38.00
2022-09-20T19:20:56.829Z,38.39
2022-09-20T19:26:18.379Z,38.73
2022-09-20T19:31:23.067Z,38.93
2022-09-20T19:36:22.903Z,39.09
2022-09-20T19:41:37.827Z,39.34
2022-09-20T19:47:07.439Z,39.39
2022-09-20T19:52:10.622Z,39.12
2022-09-20T19:57:21.147Z,39.02
2022-09-20T20:02:35.433Z,38.86
2022-09-20T20:08:09.826Z,38.96
2022-09-20T20:13:37.558Z,39.11
2022-09-20T20:18:53.111Z,39.13
2022-09-20T20:24:14.531Z,39.34
2022-09-20T20:29:12.066Z,39.70
2022-09-20T20:34:20.057Z,39.16
2022-09-20T20:39:22.366Z,39.97
2022-09-20T20:44:20.334Z,40.32
2022-09-20T20:49:17.514Z,40.35
2022-09-20T20:54:16.375Z,40.40
2022-09-20T20:59:23.588Z,40.99
2022-09-20T21:04:21.440Z,41.42
2022-09-20T21:09:19.347Z,41.76
2022-09-20T21:14:26.876Z,41.72
2022-09-20T21:19:30.897Z,41.69
2022-09-20T21:24:32.231Z,41.54
2022-09-20T21:29:29.117Z,41.36
2022-09-20T21:34:29.158Z,41.22
2022-09-20T21:39:27.107Z,41.16
2022-09-20T21:44:25.130Z,40.87
2022-09-20T21:49:28.129Z,40.77
2022-09-20T21:54:25.253Z,40.57
2022-09-20T21:59:22.521Z,40.38
2022-09-20T22:04:20.320Z,40.55
2022-09-20T22:09:23.766Z,40.46
2022-09-20T22:14:37.512Z,40.70
2022-09-20T22:19:53.542Z,40.46
2022-09-20T22:24:50.695Z,40.40
2022-09-20T22:29:47.979Z,40.37
2022-09-20T22:34:45.709Z,40.58
2022-09-20T22:39:55.559Z,40.50
2022-09-20T22:44:52.606Z,40.82
2022-09-20T22:49:55.045Z,40.88
2022-09-20T22:54:52.080Z,41.04
2022-09-20T22:59:49.042Z,41.25
2022-09-20T23:04:46.181Z,41.40
2022-09-20T23:09:43.897Z,41.80
2022-09-20T23:14:44.234Z,41.90
2022-09-20T23:19:45.750Z,42.07
2022-09-20T23:24:43.664Z,42.46
2022-09-20T23:29:40.876Z,42.52
2022-09-20T23:34:38.106Z,42.63
2022-09-20T23:39:35.089Z,42.83
2022-09-20T23:44:40.384Z,43.24
2022-09-20T23:49:36.984Z,43.18
2022-09-20T23:54:34.039Z,43.29
2022-09-20T23:59:32.026Z,43.27
